Time;durP1;ratioP1;P1;durP2;ratioP2;P2;SDS_P1;SDS_P2;PMS_P1;PMS_P2;Temp;Humidity;BMP_temperature;BMP_pressure;BME280_temperature;BME280_humidity;BME280_pressure;Samples;Min_cycle;Max_cycle;Signal;HPM_P1;HPM_P2
2021/09/12 00:00:48;;;;;;;3.97;1.98;;;;;;;29.33;59.85;100461.78;5077288;28;65327;-39
2021/09/12 00:03:19;;;;;;;2.65;1.80;;;;;;;29.27;60.65;100448.34;5056718;28;68854;-39
2021/09/12 00:05:50;;;;;;;2.90;1.95;;;;;;;29.37;60.75;100457.59;5074745;28;65553;-40
2021/09/12 00:08:21;;;;;;;2.03;1.77;;;;;;;29.34;60.56;100460.75;5075239;27;69464;-39
2021/09/12 00:10:51;;;;;;;2.85;1.92;;;;;;;29.44;60.49;100464.81;5073057;28;66367;-39
2021/09/12 00:13:22;;;;;;;3.25;1.70;;;;;;;29.48;61.27;100477.69;5073816;28;69913;-40
2021/09/12 00:15:53;;;;;;;7.07;2.15;;;;;;;29.51;61.22;100485.34;5053371;28;65725;-39
2021/09/12 00:18:24;;;;;;;2.45;1.63;;;;;;;29.44;62.17;100464.81;5071332;28;70857;-39
2021/09/12 00:20:54;;;;;;;8.13;2.78;;;;;;;29.60;63.07;100491.31;5071085;28;65370;-40
2021/09/12 00:23:25;;;;;;;9.05;3.10;;;;;;;29.67;63.72;100505.63;5057271;28;69055;-41
2021/09/12 00:25:57;;;;;;;8.45;3.00;;;;;;;29.72;63.88;100510.34;5074047;28;65958;-40
2021/09/12 00:28:27;;;;;;;;;;;;;;;29.59;65.51;100505.88;5054760;28;70156;-39
2021/09/12 00:30:58;;;;;;;3.92;3.40;;;;;;;29.77;65.01;100524.03;5075597;28;66212;-40
2021/09/12 00:33:31;;;;;;;10.48;3.15;;;;;;;29.84;65.19;100504.00;5072660;27;69434;-39
2021/09/12 00:36:01;;;;;;;4.70;3.00;;;;;;;29.87;65.51;100528.97;5069143;28;66115;-39
2021/09/12 00:38:32;;;;;;;8.57;3.25;;;;;;;29.89;65.59;100521.44;5076235;28;69851;-39
2021/09/12 00:41:03;;;;;;;9.32;3.13;;;;;;;29.93;65.59;100514.53;5075723;28;65463;-39
2021/09/12 00:43:33;;;;;;;7.93;3.30;;;;;;;29.94;65.69;100535.94;5071349;28;69526;-39
2021/09/12 00:46:08;;;;;;;6.00;3.03;;;;;;;29.97;66.25;100538.19;5046184;28;65958;-39
2021/09/12 00:48:39;;;;;;;4.88;2.83;;;;;;;29.99;66.29;100548.81;5074348;28;72303;-39
2021/09/12 00:51:10;;;;;;;5.00;2.90;;;;;;;29.99;66.48;100551.50;5072581;28;65413;-39
2021/09/12 00:53:41;;;;;;;4.75;3.42;;;;;;;29.99;66.21;100546.09;5051504;28;69413;-39
2021/09/12 00:56:13;;;;;;;4.88;3.53;;;;;;;29.77;66.46;100516.75;5060163;28;65863;-39
2021/09/12 00:58:44;;;;;;;4.25;3.28;;;;;;;30.04;66.65;100551.69;5056471;28;69053;-39
2021/09/12 01:01:15;;;;;;;3.93;3.13;;;;;;;30.05;66.72;100561.44;5075399;28;66336;-39
2021/09/12 01:03:46;;;;;;;7.80;3.00;;;;;;;30.06;66.81;100561.22;5059749;27;69269;-39
2021/09/12 01:06:17;;;;;;;5.53;2.88;;;;;;;30.06;66.15;100565.78;5056068;28;65127;-39
2021/09/12 01:08:48;;;;;;;4.55;2.83;;;;;;;30.01;66.98;100552.13;5071722;28;69904;-39
2021/09/12 01:11:20;;;;;;;4.45;2.83;;;;;;;30.08;66.81;100563.69;5058925;28;65177;-39
2021/09/12 01:13:51;;;;;;;3.25;2.75;;;;;;;30.12;66.65;100558.69;5041864;28;69961;-39
2021/09/12 01:16:22;;;;;;;3.40;2.55;;;;;;;30.07;66.57;100540.41;5074461;28;66585;-39
2021/09/12 01:18:53;;;;;;;4.70;2.58;;;;;;;30.12;66.87;100559.50;5075465;28;70170;-40
2021/09/12 01:21:27;;;;;;;3.65;2.75;;;;;;;30.16;66.44;100552.59;5075605;27;65990;-42
2021/09/12 01:23:59;;;;;;;3.75;2.67;;;;;;;30.15;67.02;100559.06;5068897;28;70294;-39
2021/09/12 01:26:31;;;;;;;6.78;3.30;;;;;;;30.18;66.88;100552.38;5066225;28;65586;-40
2021/09/12 01:29:17;;;;;;;9.70;4.47;;;;;;;30.15;66.97;100542.81;5071033;27;70377;-39
2021/09/12 01:31:48;;;;;;;12.80;4.68;;;;;;;30.22;67.09;100545.47;5070972;28;65787;-39
2021/09/12 01:34:21;;;;;;;5.53;5.03;;;;;;;30.25;67.11;100548.56;5053736;28;69802;-38
2021/09/12 01:36:52;;;;;;;9.55;3.97;;;;;;;30.22;66.80;100531.97;5056785;28;66241;-39
2021/09/12 01:39:23;;;;;;;6.50;4.00;;;;;;;30.31;67.03;100537.91;5080331;28;69829;-39
2021/09/12 01:41:54;;;;;;;6.90;3.23;;;;;;;30.30;67.21;100534.38;5057110;28;65516;-39
2021/09/12 01:44:25;;;;;;;11.07;4.18;;;;;;;30.36;67.41;100535.34;5076188;28;69455;-39
2021/09/12 01:46:56;;;;;;;3.35;3.05;;;;;;;30.35;67.66;100531.00;5057492;28;66377;-39
2021/09/12 01:49:28;;;;;;;5.45;2.90;;;;;;;30.38;67.29;100525.13;5071801;28;70724;-39
2021/09/12 01:51:59;;;;;;;6.00;3.35;;;;;;;30.38;67.76;100515.13;5041976;28;64710;-38
2021/09/12 01:54:30;;;;;;;4.28;3.10;;;;;;;30.41;67.75;100514.69;5055470;28;69948;-39
2021/09/12 01:57:04;;;;;;;4.85;2.70;;;;;;;30.42;67.73;100529.03;5068583;28;66202;-38
2021/09/12 01:59:35;;;;;;;4.30;2.63;;;;;;;30.45;67.30;100509.63;5049673;28;70708;-39
2021/09/12 02:02:06;;;;;;;6.45;3.05;;;;;;;30.46;67.22;100514.00;5077406;28;65470;-39
2021/09/12 02:04:37;;;;;;;6.73;2.70;;;;;;;30.45;67.34;100509.63;5059436;28;70280;-39
2021/09/12 02:07:08;;;;;;;5.15;2.30;;;;;;;30.54;67.16;100524.53;5055180;28;65547;-38
2021/09/12 02:09:38;;;;;;;3.08;2.72;;;;;;;30.53;67.15;100509.31;5075671;28;70059;-38
2021/09/12 02:12:10;;;;;;;4.57;2.67;;;;;;;30.55;67.31;100518.06;5078382;28;66722;-38
2021/09/12 02:14:40;;;;;;;3.92;2.70;;;;;;;30.58;67.16;100514.88;5058712;28;70733;-37
2021/09/12 02:17:11;;;;;;;6.70;3.15;;;;;;;30.61;66.63;100511.72;5074442;28;66687;-40
2021/09/12 02:19:42;;;;;;;4.00;3.00;;;;;;;30.61;66.83;100509.03;5038998;28;68897;-40
2021/09/12 02:22:13;;;;;;;4.57;2.70;;;;;;;30.61;66.79;100506.31;5057063;28;66175;-40
2021/09/12 02:24:43;;;;;;;7.20;2.83;;;;;;;30.62;66.81;100504.44;5057201;28;69379;-39
2021/09/12 02:27:14;;;;;;;3.92;2.53;;;;;;;30.58;66.36;100498.66;5078212;28;65967;-39
2021/09/12 02:29:45;;;;;;;7.75;2.72;;;;;;;30.65;66.60;100504.81;5058395;28;70179;-39
2021/09/12 02:32:16;;;;;;;5.82;2.47;;;;;;;30.67;65.88;100496.44;5051011;28;66900;-39
2021/09/12 02:34:49;;;;;;;3.85;2.40;;;;;;;30.70;66.41;100496.00;5059325;28;69835;-40
2021/09/12 02:37:20;;;;;;;5.55;3.13;;;;;;;30.66;66.02;100478.56;5074416;28;65959;-42
2021/09/12 02:39:50;;;;;;;4.10;2.75;;;;;;;30.67;65.96;100485.63;5078501;28;70384;-40
2021/09/12 02:42:21;;;;;;;3.00;2.65;;;;;;;30.79;66.02;100486.53;5076855;28;66060;-41
2021/09/12 02:44:53;;;;;;;4.22;2.83;;;;;;;30.82;65.90;100487.97;5049193;28;70052;-39
2021/09/12 02:47:24;;;;;;;6.47;2.90;;;;;;;30.82;66.29;100483.38;5075100;28;66386;-39
2021/09/12 02:49:54;;;;;;;4.38;2.85;;;;;;;30.84;65.96;100484.00;5056245;28;69188;-39
2021/09/12 02:52:25;;;;;;;4.20;2.75;;;;;;;30.90;65.89;100484.94;5075051;28;65233;-41
2021/09/12 02:54:56;;;;;;;3.53;2.95;;;;;;;30.90;65.21;100485.78;5077537;28;70506;-38
2021/09/12 02:57:26;;;;;;;4.50;2.53;;;;;;;30.88;65.05;100476.22;5058139;28;65366;-38
2021/09/12 02:59:59;;;;;;;3.35;2.67;;;;;;;30.98;64.71;100490.03;5041769;28;69935;-40
2021/09/12 03:02:33;;;;;;;3.72;2.40;;;;;;;30.99;64.54;100475.44;5070210;28;66147;-39
2021/09/12 03:05:05;;;;;;;3.53;2.83;;;;;;;30.97;64.92;100480.25;5059669;28;70101;-39
2021/09/12 03:07:36;;;;;;;4.88;2.20;;;;;;;31.00;64.54;100490.63;5054712;28;65903;-40
2021/09/12 03:10:07;;;;;;;3.85;2.70;;;;;;;30.98;64.88;100475.66;5057428;28;70511;-39
2021/09/12 03:12:38;;;;;;;4.07;2.50;;;;;;;31.00;64.39;100479.78;5055673;28;65368;-40
2021/09/12 03:15:09;;;;;;;2.53;1.98;;;;;;;31.03;64.35;100476.59;5023673;28;70083;-39
2021/09/12 03:17:41;;;;;;;3.97;2.20;;;;;;;31.05;64.14;100477.22;5073953;28;66249;-38
2021/09/12 03:20:12;;;;;;;3.35;3.00;;;;;;;31.09;63.96;100464.03;5053914;28;69733;-39
2021/09/12 03:22:43;;;;;;;5.20;2.93;;;;;;;31.07;64.06;100458.84;5054210;28;65405;-39
2021/09/12 03:25:13;;;;;;;4.63;3.30;;;;;;;31.09;63.73;100472.16;5036008;28;69996;-39
2021/09/12 03:27:45;;;;;;;5.07;2.70;;;;;;;31.13;62.94;100457.09;5044674;28;64955;-46
2021/09/12 03:30:15;;;;;;;5.18;3.03;;;;;;;31.13;63.88;100466.03;5036000;28;69011;-39
2021/09/12 03:32:51;;;;;;;4.68;2.55;;;;;;;31.17;63.63;100475.38;5076016;28;66205;-38
2021/09/12 03:35:24;;;;;;;5.43;3.22;;;;;;;31.22;64.34;100468.41;5056401;28;70108;-41
2021/09/12 03:37:55;;;;;;;;;;;;;;;31.02;64.16;100461.41;5055607;28;65593;-38
2021/09/12 03:40:26;;;;;;;3.80;3.40;;;;;;;31.16;64.02;100456.63;5076048;28;70015;-39
2021/09/12 03:42:56;;;;;;;3.22;2.92;;;;;;;31.24;64.18;100469.03;5072978;28;66002;-38
2021/09/12 03:45:27;;;;;;;5.28;3.45;;;;;;;31.25;63.42;100459.81;5056520;28;69641;-36
2021/09/12 03:47:58;;;;;;;6.63;3.25;;;;;;;31.21;63.67;100461.38;5077815;28;66625;-36
2021/09/12 03:50:29;;;;;;;6.47;3.45;;;;;;;31.24;63.95;100463.59;5051879;28;69294;-38
2021/09/12 03:53:01;;;;;;;4.07;3.63;;;;;;;31.15;63.58;100461.22;5047995;28;66108;-38
2021/09/12 03:55:32;;;;;;;11.80;3.65;;;;;;;31.28;63.31;100465.59;5063598;28;68965;-38
2021/09/12 03:58:04;;;;;;;8.48;3.30;;;;;;;31.29;63.64;100456.41;5038183;28;65383;-39
2021/09/12 04:00:36;;;;;;;9.88;3.70;;;;;;;31.28;63.12;100460.16;5043096;28;69040;-39
2021/09/12 04:03:07;;;;;;;5.35;3.53;;;;;;;31.28;62.21;100453.94;5070563;28;65485;-37
2021/09/12 04:05:38;;;;;;;4.03;3.33;;;;;;;31.25;62.61;100432.72;5075959;28;69920;-38
2021/09/12 04:08:10;;;;;;;3.63;3.03;;;;;;;31.28;62.28;100440.38;5055361;28;66330;-38
2021/09/12 04:10:40;;;;;;;6.15;4.75;;;;;;;31.31;61.84;100459.69;5069264;27;70074;-38
2021/09/12 04:13:11;;;;;;;6.55;3.97;;;;;;;31.26;61.02;100451.47;5076257;28;66188;-37
2021/09/12 04:15:42;;;;;;;4.45;3.53;;;;;;;31.33;61.80;100448.66;5073071;28;69915;-42
2021/09/12 04:18:13;;;;;;;6.25;4.40;;;;;;;31.35;61.05;100438.41;5078680;28;65416;-38
2021/09/12 04:20:43;;;;;;;7.95;5.25;;;;;;;31.38;62.13;100449.63;5049710;28;70236;-38
2021/09/12 04:23:14;;;;;;;13.02;4.85;;;;;;;31.41;62.40;100451.03;5078929;28;65447;-39
2021/09/12 04:25:45;;;;;;;5.57;5.07;;;;;;;31.44;62.88;100442.44;5075811;28;69684;-38
2021/09/12 04:28:18;;;;;;;8.20;5.50;;;;;;;31.50;62.59;100446.91;5079465;28;65526;-39
2021/09/12 04:30:49;;;;;;;;;;;;;;;31.37;60.94;100439.84;5077847;27;69806;-38
2021/09/12 04:33:20;;;;;;;4.88;4.45;;;;;;;31.59;58.12;100439.25;5072079;28;65366;-38
2021/09/12 04:35:51;;;;;;;5.47;4.97;;;;;;;31.60;58.37;100440.91;5073702;28;70103;-38
2021/09/12 04:38:21;;;;;;;5.32;4.85;;;;;;;31.67;59.00;100440.78;5072743;28;66706;-39
2021/09/12 04:40:52;;;;;;;5.68;4.68;;;;;;;31.57;60.11;100420.53;5079481;28;69211;-38
2021/09/12 04:43:23;;;;;;;7.63;4.28;;;;;;;31.50;58.88;100414.38;5078684;28;67081;-39
2021/09/12 04:45:54;;;;;;;4.05;3.63;;;;;;;31.55;58.98;100417.22;5055551;28;69407;-38
2021/09/12 04:48:25;;;;;;;3.00;2.63;;;;;;;31.57;57.22;100404.25;5056358;28;66044;-38
2021/09/12 04:50:56;;;;;;;3.65;2.63;;;;;;;31.48;58.19;100394.84;5071965;28;70161;-39
2021/09/12 04:53:27;;;;;;;2.60;2.40;;;;;;;31.27;57.98;100357.44;5053771;28;65907;-38
2021/09/12 04:55:58;;;;;;;2.92;2.60;;;;;;;31.47;58.15;100382.34;5076363;28;69124;-38
2021/09/12 04:58:29;;;;;;;3.40;2.97;;;;;;;31.45;57.51;100362.75;5078314;28;66703;-38
2021/09/12 05:01:00;;;;;;;3.00;2.80;;;;;;;31.47;57.96;100344.38;5071225;28;69821;-38
2021/09/12 05:03:31;;;;;;;4.28;3.28;;;;;;;31.47;58.70;100344.38;5056428;28;65590;-38
2021/09/12 05:06:02;;;;;;;3.20;2.95;;;;;;;31.45;58.47;100329.41;5053078;28;69789;-38
2021/09/12 05:08:33;;;;;;;4.15;3.85;;;;;;;31.43;58.75;100337.81;5072879;28;65262;-39
2021/09/12 05:11:04;;;;;;;3.40;3.10;;;;;;;31.48;59.30;100339.78;5072701;28;70054;-37
2021/09/12 05:13:38;;;;;;;3.80;3.50;;;;;;;31.49;58.91;100342.28;5073281;28;66607;-39
2021/09/12 05:16:11;;;;;;;3.38;3.17;;;;;;;31.49;58.63;100342.28;5067685;28;69498;-38
2021/09/12 05:18:42;;;;;;;3.85;2.88;;;;;;;31.47;58.80;100328.13;5074030;28;66131;-38
2021/09/12 05:21:12;;;;;;;8.57;2.50;;;;;;;31.50;58.54;100321.41;5072006;27;68903;-38
2021/09/12 05:23:43;;;;;;;3.55;2.95;;;;;;;31.53;58.24;100321.75;5069011;28;66234;-39
2021/09/12 05:26:14;;;;;;;5.80;2.80;;;;;;;31.57;58.69;100301.25;5074346;28;70382;-38
2021/09/12 05:28:45;;;;;;;10.52;2.72;;;;;;;31.56;58.50;100294.16;5072656;28;66169;-38
2021/09/12 05:31:16;;;;;;;4.88;2.60;;;;;;;31.46;57.32;100285.81;5078447;28;70122;-38
2021/09/12 05:33:48;;;;;;;7.57;2.70;;;;;;;31.37;56.83;100284.53;5042938;28;66584;-38
2021/09/12 05:36:20;;;;;;;4.38;2.65;;;;;;;31.30;55.22;100275.69;5050796;28;70025;-37
2021/09/12 05:38:53;;;;;;;3.92;2.83;;;;;;;31.20;54.88;100270.03;5039538;28;64649;-37
2021/09/12 05:41:26;;;;;;;3.97;2.75;;;;;;;31.16;53.91;100273.22;5077135;28;70181;-37
2021/09/12 05:43:58;;;;;;;2.90;2.33;;;;;;;31.10;54.39;100263.34;5076203;28;66072;-38
2021/09/12 05:46:30;;;;;;;4.28;2.60;;;;;;;31.01;53.24;100251.22;5074717;28;69101;-38
2021/09/12 05:49:01;;;;;;;9.40;2.70;;;;;;;30.98;53.52;100270.66;5051543;28;66262;-38
2021/09/12 05:51:31;;;;;;;9.85;2.53;;;;;;;30.94;52.57;100264.84;5075836;28;70868;-37
2021/09/12 05:54:02;;;;;;;13.43;3.45;;;;;;;30.92;52.92;100266.16;5075992;28;67341;-36
2021/09/12 05:56:35;;;;;;;11.00;2.97;;;;;;;30.86;51.60;100257.09;5073959;28;69841;-36
2021/09/12 05:59:07;;;;;;;18.13;2.90;;;;;;;30.85;51.13;100265.47;5055356;28;66204;-37
2021/09/12 06:01:40;;;;;;;11.23;3.25;;;;;;;30.80;50.77;100254.50;5070439;28;69262;-36
2021/09/12 06:04:11;;;;;;;9.43;2.95;;;;;;;30.75;50.58;100255.16;5054671;28;66374;-38
2021/09/12 06:06:43;;;;;;;5.90;2.05;;;;;;;30.75;50.41;100262.47;5070800;28;70650;-38
2021/09/12 06:09:16;;;;;;;12.75;2.60;;;;;;;30.68;49.58;100240.94;5054510;28;65343;-37
2021/09/12 06:11:47;;;;;;;3.03;1.90;;;;;;;30.70;49.62;100242.34;5040670;28;69877;-36
2021/09/12 06:14:19;;;;;;;4.63;2.20;;;;;;;30.64;49.85;100227.03;5056764;28;66099;-38
2021/09/12 06:16:49;;;;;;;3.70;2.10;;;;;;;30.63;48.93;100225.38;5067839;28;70414;-39
2021/09/12 06:19:33;;;;;;;3.50;2.40;;;;;;;30.66;48.93;100229.50;5066747;28;66263;-38
2021/09/12 06:22:05;;;;;;;2.65;2.20;;;;;;;30.66;49.17;100224.09;5070707;28;70243;-38
2021/09/12 06:24:39;;;;;;;4.10;2.20;;;;;;;30.63;49.08;100230.78;5074373;28;66274;-37
2021/09/12 06:27:12;;;;;;;3.75;2.30;;;;;;;30.57;49.50;100229.03;5075175;28;69972;-37
2021/09/12 06:29:42;;;;;;;3.17;2.55;;;;;;;30.64;49.16;100227.03;5073587;28;65783;-38
2021/09/12 06:32:13;;;;;;;1.85;1.75;;;;;;;30.59;48.78;100213.38;5053804;28;70127;-37
2021/09/12 06:34:44;;;;;;;2.20;1.77;;;;;;;30.68;48.90;100220.09;5075866;28;66066;-38
2021/09/12 06:37:16;;;;;;;3.17;1.73;;;;;;;30.64;48.12;100216.19;5073436;28;70424;-38
2021/09/12 06:39:48;;;;;;;4.45;2.72;;;;;;;30.64;48.44;100205.38;5074462;28;67323;-37
2021/09/12 06:42:20;;;;;;;2.20;2.00;;;;;;;30.66;47.77;100205.97;5039954;28;70439;-37
2021/09/12 06:44:50;;;;;;;5.43;2.30;;;;;;;30.68;48.01;100211.97;5076828;28;66020;-38
2021/09/12 06:47:21;;;;;;;11.15;2.35;;;;;;;30.69;48.06;100197.38;5060186;28;70022;-37
2021/09/12 06:49:54;;;;;;;4.57;2.67;;;;;;;30.71;47.44;100210.69;5051103;28;66269;-38
2021/09/12 06:52:32;;;;;;;9.00;2.20;;;;;;;30.58;47.28;100184.66;5054181;28;69992;-38
2021/09/12 06:55:03;;;;;;;5.43;1.95;;;;;;;30.67;47.12;100187.81;5053617;28;66550;-38
2021/09/12 06:57:50;;;;;;;4.68;2.30;;;;;;;30.70;47.30;100193.63;5050576;28;69980;-38
2021/09/12 07:00:22;;;;;;;2.03;1.83;;;;;;;30.70;47.29;100180.09;5056581;28;66014;-38
2021/09/12 07:02:56;;;;;;;2.08;1.80;;;;;;;30.68;46.82;100184.09;5049216;28;69716;-37
2021/09/12 07:05:27;;;;;;;5.73;1.97;;;;;;;30.62;46.40;100174.16;5055115;28;66297;-38
2021/09/12 07:07:59;;;;;;;2.22;2.03;;;;;;;30.67;46.49;100179.72;5051406;28;70268;-37
2021/09/12 07:10:32;;;;;;;5.55;2.55;;;;;;;30.68;46.69;100178.66;5052694;28;66066;-37
2021/09/12 07:13:03;;;;;;;2.92;2.42;;;;;;;30.70;46.68;100174.66;5049989;28;70772;-38
2021/09/12 07:15:34;;;;;;;8.95;2.15;;;;;;;30.72;46.67;100164.41;5048440;28;65820;-37
2021/09/12 07:18:05;;;;;;;2.10;1.90;;;;;;;30.65;46.44;100158.31;5053280;28;69568;-38
2021/09/12 07:20:37;;;;;;;18.85;2.90;;;;;;;30.77;48.15;100168.31;5051270;28;66218;-37
2021/09/12 07:23:08;;;;;;;7.15;2.42;;;;;;;30.77;47.92;100154.75;5052773;28;70598;-37
2021/09/12 07:25:38;;;;;;;12.43;2.63;;;;;;;30.72;46.80;100142.75;5053477;28;65003;-38
2021/09/12 07:28:10;;;;;;;2.53;2.33;;;;;;;30.76;46.90;100144.97;5046926;28;69127;-38
2021/09/12 07:30:40;;;;;;;9.43;2.17;;;;;;;30.73;46.41;100136.28;5055383;28;66421;-38
2021/09/12 07:33:15;;;;;;;5.68;2.30;;;;;;;30.69;46.00;100137.00;5055077;28;69678;-38
2021/09/12 07:35:46;;;;;;;;;;;;;;;30.54;45.64;100151.00;5052906;28;65650;-38
2021/09/12 07:38:17;;;;;;;;;;;;;;;30.51;45.99;100156.91;5053734;28;69163;-38
2021/09/12 07:40:47;;;;;;;;;;;;;;;30.49;45.89;100142.78;5051991;28;66916;-38
2021/09/12 07:43:20;;;;;;;;;;;;;;;30.49;45.70;100148.19;5053644;28;69290;-38
2021/09/12 07:45:52;;;;;;;;;;;;;;;30.49;45.25;100153.59;5054621;28;65744;-38
2021/09/12 07:48:23;;;;;;;;;;;;;;;30.50;45.84;100149.81;5055403;28;70508;-39
2021/09/12 07:50:56;;;;;;;;;;;;;;;30.55;49.40;100160.75;5054438;28;66535;-37
2021/09/12 07:53:29;;;;;;;;;;;;;;;30.54;49.41;100191.59;5052662;28;70226;-37
2021/09/12 07:55:59;;;;;;;;;;;;;;;30.59;49.20;100185.47;5058521;28;67453;-37
2021/09/12 07:58:29;;;;;;;;;;;;;;;30.57;48.93;100188.44;5053803;28;70320;-37
2021/09/12 08:01:02;;;;;;;;;;;;;;;30.59;50.01;100169.22;5033674;28;65945;-38
2021/09/12 08:03:33;;;;;;;;;;;;;;;30.60;49.49;100160.88;5037900;28;69140;-43
2021/09/12 08:06:29;;;;;;;;;;;;;;;30.60;48.68;100155.47;5010621;28;66908;-38
2021/09/12 08:08:59;;;;;;;;;;;;;;;30.57;48.42;100153.25;5014029;28;69823;-37
2021/09/12 08:11:30;;;;;;;;;;;;;;;30.63;50.41;100152.28;5014682;28;66563;-38
2021/09/12 08:14:02;;;;;;;;;;;;;;;30.74;54.33;100153.34;5015195;28;69198;-38
2021/09/12 08:16:32;;;;;;;;;;;;;;;30.91;56.99;100148.06;5012116;28;65203;-39
2021/09/12 08:19:04;;;;;;;;;;;;;;;31.05;57.76;100152.16;5015299;28;70562;-38
2021/09/12 08:21:37;;;;;;;;;;;;;;;31.19;59.30;100151.88;5015261;28;66765;-38
2021/09/12 08:24:10;;;;;;;;;;;;;;;31.30;60.66;100154.56;5000695;28;69758;-37
2021/09/12 08:26:42;;;;;;;;;;;;;;;31.44;62.21;100141.59;5001548;28;65599;-37
2021/09/12 08:29:14;;;;;;;;;;;;;;;31.56;62.53;100153.19;5012778;28;69709;-37
2021/09/12 08:31:45;;;;;;;;;;;;;;;31.66;62.30;100146.31;5007898;28;65960;-37
2021/09/12 08:34:17;;;;;;;;;;;;;;;31.72;62.57;100142.63;5015527;28;69817;-38
2021/09/12 08:36:48;;;;;;;;;;;;;;;31.74;61.70;100148.66;5023500;28;66212;-37
2021/09/12 08:39:19;;;;;;;;;;;;;;;31.80;62.07;100147.66;5057326;28;69271;-37
2021/09/12 08:41:52;;;;;;;;;;;;;;;31.82;62.69;100153.69;5056371;28;66191;-38
2021/09/12 08:44:24;;;;;;;;;;;;;;;31.86;62.71;100170.28;5056293;28;69318;-37
2021/09/12 08:46:57;;;;;;;;;;;;;;;31.86;62.91;100195.50;5052718;28;65569;-38
2021/09/12 08:49:28;;;;;;;;;;;;;;;31.86;62.83;100190.06;5063907;28;70309;-37
2021/09/12 08:51:58;;;;;;;;;;;;;;;31.87;63.72;100164.59;5055346;28;66596;-37
2021/09/12 08:54:28;;;;;;;;;;;;;;;31.92;63.69;100167.44;5056571;28;68898;-38
2021/09/12 08:56:58;;;;;;;;;;;;;;;31.92;64.19;100167.44;5073829;28;66395;-38
2021/09/12 08:59:32;;;;;;;;;;;;;;;31.93;64.82;100166.38;5056105;28;69963;-38
2021/09/12 09:02:12;;;;;;;;;;;;;;;31.98;64.56;100166.47;5077570;28;66048;-38
2021/09/12 09:04:42;;;;;;;;;;;;;;;31.98;64.88;100171.91;5076178;28;70592;-38
2021/09/12 09:07:15;;;;;;;;;;;;;;;31.98;64.30;100171.91;5073724;28;65508;-38
2021/09/12 09:09:46;;;;;;;;;;;;;;;31.96;64.53;100174.03;5072133;27;70074;-38
2021/09/12 09:12:22;;;;;;;;;;;;;;;31.96;64.29;100174.03;5073115;28;66298;-37
2021/09/12 09:15:05;;;;;;;;;;;;;;;31.90;64.13;100164.13;5073792;28;70349;-37
2021/09/12 09:17:36;;;;;;;;;;;;;;;31.96;64.14;100157.75;5074031;28;66133;-37
2021/09/12 09:20:08;;;;;;;;;;;;;;;32.00;63.70;100158.06;5067684;28;69611;-37
2021/09/12 09:22:41;;;;;;;;;;;;;;;32.03;63.79;100169.25;5077145;28;66623;-36
2021/09/12 09:25:14;;;;;;;;;;;;;;;32.09;63.50;100166.63;5070525;28;70369;-36
2021/09/12 09:27:58;;;;;;;;;;;;;;;32.13;63.47;100165.91;5067652;28;66580;-36
2021/09/12 09:30:31;;;;;;;;;;;;;;;32.15;63.46;100166.50;5076157;28;68887;-37
2021/09/12 09:33:18;;;;;;;;;;;;;;;32.18;63.53;100170.56;5071347;28;66396;-37
2021/09/12 09:35:56;;;;;;;;;;;;;;;32.19;63.34;100166.81;5073732;28;70315;-38
2021/09/12 09:38:28;;;;;;;;;;;;;;;32.20;63.21;100157.59;5079005;28;67042;-37
2021/09/12 09:40:59;;;;;;;;;;;;;;;32.19;62.67;100162.19;5071803;28;69727;-37
2021/09/12 09:43:36;;;;;;;;;;;;;;;32.20;63.08;100160.31;5074986;28;67038;-37
2021/09/12 09:46:06;;;;;;;;;;;;;;;32.20;63.16;100171.16;5063370;28;70028;-36
2021/09/12 09:48:38;;;;;;;;;;;;;;;32.19;63.83;100166.81;5059217;28;66066;-37
2021/09/12 09:51:09;;;;;;;;;;;;;;;32.24;63.94;100170.44;5070169;28;70325;-37
2021/09/12 09:53:40;;;;;;;;;;;;;;;32.18;64.25;100176.00;5077628;28;66325;-37
2021/09/12 09:56:11;;;;;;;;;;;;;;;32.15;64.77;100179.22;5072735;27;68956;-37
2021/09/12 09:58:43;;;;;;;;;;;;;;;32.12;64.81;100187.84;5075188;28;65358;-36
2021/09/12 10:01:15;;;;;;;;;;;;;;;32.07;64.86;100188.59;5079148;27;70311;-37
2021/09/12 10:03:46;;;;;;;;;;;;;;;32.04;65.13;100187.19;5078102;27;66783;-36
2021/09/12 10:06:16;;;;;;;;;;;;;;;32.04;65.54;100206.19;5057533;28;70830;-37
2021/09/12 10:08:46;;;;;;;;;;;;;;;32.00;65.81;100212.31;5056435;28;66331;-37
2021/09/12 10:11:17;;;;;;;;;;;;;;;31.99;66.08;100282.03;5060033;28;70400;-37
2021/09/12 10:13:48;;;;;;;;;;;;;;;31.98;65.50;100315.66;5078574;27;65717;-38
2021/09/12 10:16:20;;;;;;;;;;;;;;;31.94;65.66;100338.91;5077676;28;69469;-38
2021/09/12 10:18:50;;;;;;;;;;;;;;;31.91;65.52;100331.25;5076486;28;65538;-38
2021/09/12 10:21:23;;;;;;;;;;;;;;;31.89;65.61;100318.97;5072990;28;70297;-37
2021/09/12 10:24:02;;;;;;;;;;;;;;;31.80;66.00;100304.97;5071799;28;66447;-38
2021/09/12 10:26:37;;;;;;;;;;;;;;;31.77;65.99;100305.44;5073879;28;69748;-38
2021/09/12 10:29:27;;;;;;;;;;;;;;;31.73;66.58;100309.69;5070637;28;66841;-38
2021/09/12 10:31:57;;;;;;;;;;;;;;;31.68;66.58;100306.84;5069501;27;70829;-37
2021/09/12 10:34:27;;;;;;;;;;;;;;;31.65;66.08;100291.06;5071289;28;65882;-37
2021/09/12 10:37:17;;;;;;;;;;;;;;;31.64;66.27;100289.44;5078263;27;69875;-37
2021/09/12 10:39:53;;;;;;;;;;;;;;;31.61;66.07;100288.03;5075728;28;66103;-37
2021/09/12 10:42:23;;;;;;;;;;;;;;;31.58;66.31;100291.22;5072097;28;70888;-38
2021/09/12 10:45:12;;;;;;;;;;;;;;;31.52;66.21;100282.16;5078980;27;66721;-37
2021/09/12 10:47:42;;;;;;;;;;;;;;;31.51;66.66;100290.50;5071574;28;70896;-37
2021/09/12 10:50:31;;;;;;;;;;;;;;;31.47;66.02;100289.34;5075879;28;66249;-38
2021/09/12 10:53:01;;;;;;;;;;;;;;;31.45;66.63;100297.72;5071111;28;70004;-36
2021/09/12 10:55:51;;;;;;;;;;;;;;;31.43;66.19;100305.28;5061078;28;65224;-37
2021/09/12 10:58:25;;;;;;;;;;;;;;;31.42;66.50;100305.50;5071443;28;43138;-37
2021/09/12 11:00:56;;;;;;;;;;;;;;;31.37;66.67;100311.63;5078609;28;66050;-37
2021/09/12 11:03:28;;;;;;;;;;;;;;;31.34;66.46;100320.19;5070839;27;69954;-37
2021/09/12 11:05:58;;;;;;;;;;;;;;;31.35;66.03;100319.16;5055754;28;65573;-47
2021/09/12 11:08:39;;;;;;;;;;;;;;;31.05;66.71;100282.16;5071039;28;70505;-37
2021/09/12 11:11:09;;;;;;;;;;;;;;;31.31;66.58;100328.81;5069471;28;65979;-37
2021/09/12 11:13:39;;;;;;;;;;;;;;;31.23;66.68;100331.88;5077591;28;70533;-37
2021/09/12 11:16:11;;;;;;;;;;;;;;;31.26;67.05;100339.53;5042641;28;66178;-37
2021/09/12 11:18:58;;;;;;;;;;;;;;;31.24;67.93;100344.38;5055386;28;69084;-37
2021/09/12 11:21:33;;;;;;;;;;;;;;;31.23;67.78;100340.00;5075641;28;66464;-37
2021/09/12 11:24:08;;;;;;;;;;;;;;;31.23;67.50;100348.13;5072366;28;69797;-37
2021/09/12 11:26:46;;;;;;;;;;;;;;;31.16;67.35;100353.69;5061519;28;66213;-37
2021/09/12 11:29:26;;;;;;;;;;;;;;;31.14;67.33;100356.59;5076599;28;69412;-38
2021/09/12 11:31:59;;;;;;;;;;;;;;;31.12;67.41;100353.31;5076163;28;65805;-37
2021/09/12 11:34:29;;;;;;;;;;;;;;;31.09;67.68;100342.97;5076921;28;70120;-37
2021/09/12 11:37:01;;;;;;;;;;;;;;;31.09;67.31;100342.13;5074717;28;66495;-38
2021/09/12 11:39:32;;;;;;;;;;;;;;;31.06;67.61;100338.00;5054867;28;70185;-37
2021/09/12 11:42:03;;;;;;;;;;;;;;;31.02;67.00;100336.81;5074716;28;65639;-38
2021/09/12 11:44:38;;;;;;;;;;;;;;;31.02;67.27;100336.00;5076999;28;69024;-37
2021/09/12 11:47:16;;;;;;;;;;;;;;;31.00;67.35;100344.34;5052497;28;66192;-36
2021/09/12 11:49:57;;;;;;;;;;;;;;;30.99;66.74;100339.19;5072653;28;70260;-37
2021/09/12 11:52:34;;;;;;;;;;;;;;;30.96;66.89;100347.78;5072956;28;66821;-38
2021/09/12 11:55:18;;;;;;;;;;;;;;;30.94;66.94;100348.00;5068005;28;69167;-36
2021/09/12 11:58:04;;;;;;;;;;;;;;;30.94;66.53;100351.53;5072692;28;65663;-37
2021/09/12 12:00:38;;;;;;;;;;;;;;;30.93;66.98;100349.06;5070700;28;70136;-36
2021/09/12 12:03:09;;;;;;;;;;;;;;;30.91;66.71;100343.06;5071210;28;66261;-37
2021/09/12 12:05:41;;;;;;;;;;;;;;;30.90;66.59;100342.22;5072850;28;69984;-37
2021/09/12 12:08:16;;;;;;;;;;;;;;;30.87;66.66;100342.69;5075298;28;66030;-37
2021/09/12 12:10:46;;;;;;;;;;;;;;;30.86;66.26;100342.91;5040072;28;69058;-37
2021/09/12 12:13:16;;;;;;;;;;;;;;;30.86;66.94;100342.91;5055684;28;66941;-37
2021/09/12 12:15:46;;;;;;;;;;;;;;;30.86;66.47;100343.75;5054772;28;70812;-38